createdAt,value
2019-03-03T00:00:43.390Z,1006.31
2019-03-03T00:01:47.594Z,1006.27
2019-03-03T00:02:51.670Z,1006.25
2019-03-03T00:03:55.942Z,1006.28
2019-03-03T00:05:00.049Z,1006.27
2019-03-03T00:06:04.155Z,1006.25
2019-03-03T00:07:08.415Z,1006.22
2019-03-03T00:08:12.438Z,1006.21
2019-03-03T00:09:16.757Z,1006.20
2019-03-03T00:10:20.923Z,1006.20
2019-03-03T00:11:25.137Z,1006.20
2019-03-03T00:12:29.380Z,1006.17
2019-03-03T00:13:33.517Z,1006.16
2019-03-03T00:14:37.823Z,1006.16
2019-03-03T00:15:42.020Z,1006.14
2019-03-03T00:16:46.130Z,1006.14
2019-03-03T00:17:50.373Z,1006.13
2019-03-03T00:18:54.485Z,1006.10
2019-03-03T00:19:58.675Z,1006.07
2019-03-03T00:21:02.941Z,1006.05
2019-03-03T00:22:07.155Z,1006.02
2019-03-03T00:23:11.309Z,1005.98
2019-03-03T00:24:15.471Z,1005.96
2019-03-03T00:25:19.647Z,1005.97
2019-03-03T00:26:23.776Z,1005.99
2019-03-03T00:27:28.049Z,1005.97
2019-03-03T00:28:32.236Z,1005.94
2019-03-03T00:29:36.610Z,1005.95
2019-03-03T00:30:40.577Z,1005.98
2019-03-03T00:31:44.753Z,1005.99
2019-03-03T00:32:48.967Z,1005.98
2019-03-03T00:33:53.204Z,1005.94
2019-03-03T00:34:57.430Z,1005.87
2019-03-03T00:36:01.426Z,1005.86
2019-03-03T00:37:05.728Z,1005.85
2019-03-03T00:38:09.955Z,1005.84
2019-03-03T00:39:14.195Z,1005.79
2019-03-03T00:40:18.295Z,1005.75
2019-03-03T00:41:22.490Z,1005.74
2019-03-03T00:42:26.686Z,1005.78
2019-03-03T00:43:30.928Z,1005.73
2019-03-03T00:44:35.137Z,1005.71
2019-03-03T00:45:39.243Z,1005.70
2019-03-03T00:46:43.449Z,1005.67
2019-03-03T00:47:47.607Z,1005.62
2019-03-03T00:48:51.849Z,1005.61
2019-03-03T00:49:56.072Z,1005.60
2019-03-03T00:51:00.260Z,1005.60
2019-03-03T00:52:04.370Z,1005.53
2019-03-03T00:53:08.607Z,1005.55
2019-03-03T00:54:12.827Z,1005.52
2019-03-03T00:55:17.058Z,1005.51
2019-03-03T00:56:21.189Z,1005.48
2019-03-03T00:57:25.341Z,1005.44
2019-03-03T00:58:29.596Z,1005.39
2019-03-03T00:59:33.795Z,1005.38
2019-03-03T01:00:38.013Z,1005.34
2019-03-03T01:01:42.219Z,1005.33
2019-03-03T01:02:46.520Z,1005.34
2019-03-03T01:03:50.553Z,1005.38
2019-03-03T01:04:54.755Z,1005.37
2019-03-03T01:05:59.020Z,1005.37
2019-03-03T01:07:03.143Z,1005.37
2019-03-03T01:08:07.311Z,1005.37
2019-03-03T01:09:11.598Z,1005.34
2019-03-03T01:10:15.767Z,1005.29
2019-03-03T01:11:19.892Z,1005.30
2019-03-03T01:12:24.141Z,1005.26
2019-03-03T01:13:28.305Z,1005.22
2019-03-03T01:14:32.575Z,1005.22
2019-03-03T01:15:36.759Z,1005.18
2019-03-03T01:16:40.942Z,1005.19
2019-03-03T01:17:45.110Z,1005.20
2019-03-03T01:18:49.268Z,1005.16
2019-03-03T01:19:53.513Z,1005.09
2019-03-03T01:20:57.768Z,1005.12
2019-03-03T01:22:01.984Z,1005.24
2019-03-03T01:23:06.147Z,1005.23
2019-03-03T01:24:10.251Z,1005.27
2019-03-03T01:25:14.444Z,1005.29
2019-03-03T01:26:18.594Z,1005.27
2019-03-03T01:27:22.749Z,1005.28
2019-03-03T01:28:27.004Z,1005.27
2019-03-03T01:29:31.219Z,1005.25
2019-03-03T01:30:35.454Z,1005.23
2019-03-03T01:31:39.647Z,1005.22
2019-03-03T01:32:43.812Z,1005.24
2019-03-03T01:33:47.987Z,1005.23
2019-03-03T01:34:52.196Z,1005.21
2019-03-03T01:35:56.346Z,1005.22
2019-03-03T01:37:00.626Z,1005.21
2019-03-03T01:38:04.770Z,1005.19
2019-03-03T01:39:09.032Z,1005.18
2019-03-03T01:40:13.237Z,1005.17
2019-03-03T01:41:17.462Z,1005.19
2019-03-03T01:42:21.666Z,1005.18
2019-03-03T01:43:25.797Z,1005.21
2019-03-03T01:44:30.063Z,1005.17
2019-03-03T01:45:34.266Z,1005.16
2019-03-03T01:46:38.505Z,1005.14
2019-03-03T01:47:42.698Z,1005.12
2019-03-03T01:48:46.918Z,1005.15
2019-03-03T01:49:51.134Z,1005.16
2019-03-03T01:50:55.371Z,1005.12
2019-03-03T01:51:59.587Z,1005.10
2019-03-03T01:53:03.703Z,1005.08
2019-03-03T01:54:07.952Z,1005.07
2019-03-03T01:55:12.131Z,1005.04
2019-03-03T01:56:16.361Z,1005.03
2019-03-03T01:57:20.597Z,1005.02
2019-03-03T01:58:24.795Z,1005.00
2019-03-03T01:59:28.951Z,1005.02
2019-03-03T02:00:33.202Z,1004.96
2019-03-03T02:01:37.380Z,1004.92
2019-03-03T02:02:41.528Z,1004.86
2019-03-03T02:03:45.754Z,1004.83
2019-03-03T02:04:50.015Z,1004.82
2019-03-03T02:05:54.218Z,1004.77
2019-03-03T02:06:58.438Z,1004.75
2019-03-03T02:08:02.662Z,1004.74
2019-03-03T02:09:06.859Z,1004.69
2019-03-03T02:10:10.985Z,1004.69
2019-03-03T02:11:15.140Z,1004.70
2019-03-03T02:12:19.333Z,1004.68
2019-03-03T02:13:23.589Z,1004.63
2019-03-03T02:14:27.699Z,1004.64
2019-03-03T02:15:31.963Z,1004.58
2019-03-03T02:16:36.201Z,1004.57
2019-03-03T02:17:40.378Z,1004.57
2019-03-03T02:18:44.599Z,1004.53
2019-03-03T02:19:48.832Z,1004.52
2019-03-03T02:20:53.062Z,1004.54
2019-03-03T02:21:57.177Z,1004.53
2019-03-03T02:23:01.442Z,1004.51
2019-03-03T02:24:05.574Z,1004.50
2019-03-03T02:25:09.728Z,1004.49
2019-03-03T02:26:13.955Z,1004.50
2019-03-03T02:27:18.139Z,1004.47
2019-03-03T02:28:22.283Z,1004.43
2019-03-03T02:29:26.570Z,1004.43
2019-03-03T02:30:30.743Z,1004.39
2019-03-03T02:31:34.874Z,1004.37
2019-03-03T02:32:39.979Z,1004.38
2019-03-03T02:33:43.866Z,1004.36
2019-03-03T02:34:48.013Z,1004.34
2019-03-03T02:35:52.234Z,1004.33
2019-03-03T02:36:56.369Z,1004.28
2019-03-03T02:38:00.664Z,1004.25
2019-03-03T02:39:04.720Z,1004.26
2019-03-03T02:40:08.928Z,1004.28
2019-03-03T02:41:13.201Z,1004.24
2019-03-03T02:42:17.468Z,1004.25
2019-03-03T02:43:21.608Z,1004.28
2019-03-03T02:44:25.830Z,1004.24
2019-03-03T02:45:30.089Z,1004.21
2019-03-03T02:46:34.229Z,1004.26
2019-03-03T02:47:38.538Z,1004.26
2019-03-03T02:48:42.696Z,1004.24
2019-03-03T02:49:46.955Z,1004.21
2019-03-03T02:50:51.073Z,1004.17
2019-03-03T02:51:55.290Z,1004.11
2019-03-03T02:52:59.517Z,1004.02
2019-03-03T02:54:03.745Z,1004.04
2019-03-03T02:55:07.912Z,1004.01
2019-03-03T02:56:12.123Z,1003.96
2019-03-03T02:57:16.363Z,1003.89
2019-03-03T02:58:20.571Z,1003.81
2019-03-03T02:59:24.787Z,1003.80
2019-03-03T03:00:29.021Z,1003.77
2019-03-03T03:01:33.184Z,1003.78
2019-03-03T03:02:37.494Z,1003.76
2019-03-03T03:03:41.656Z,1003.76
2019-03-03T03:04:45.700Z,1003.77
2019-03-03T03:05:50.085Z,1003.72
2019-03-03T03:06:54.273Z,1003.68
2019-03-03T03:07:58.525Z,1003.70
2019-03-03T03:09:02.655Z,1003.66
2019-03-03T03:10:06.941Z,1003.67
2019-03-03T03:11:11.153Z,1003.60
2019-03-03T03:12:15.283Z,1003.62
2019-03-03T03:13:19.483Z,1003.58
2019-03-03T03:14:23.772Z,1003.54
2019-03-03T03:15:27.839Z,1003.47
2019-03-03T03:16:32.051Z,1003.49
2019-03-03T03:17:36.359Z,1003.49
2019-03-03T03:18:40.490Z,1003.51
2019-03-03T03:19:45.571Z,1003.47
2019-03-03T03:20:49.488Z,1003.41
2019-03-03T03:21:53.591Z,1003.38
2019-03-03T03:22:57.851Z,1003.33
2019-03-03T03:24:02.013Z,1003.29
2019-03-03T03:25:06.154Z,1003.28
2019-03-03T03:26:10.416Z,1003.28
2019-03-03T03:27:14.581Z,1003.28
2019-03-03T03:28:19.011Z,1003.26
2019-03-03T03:29:23.168Z,1003.28
2019-03-03T03:30:27.305Z,1003.28
2019-03-03T03:31:31.506Z,1003.28
2019-03-03T03:32:35.786Z,1003.30
2019-03-03T03:33:40.005Z,1003.30
2019-03-03T03:34:44.205Z,1003.37
2019-03-03T03:35:48.446Z,1003.39
2019-03-03T03:36:52.678Z,1003.40
2019-03-03T03:37:56.896Z,1003.33
2019-03-03T03:39:01.170Z,1003.30
2019-03-03T03:40:05.413Z,1003.27
2019-03-03T03:41:09.593Z,1003.23
2019-03-03T03:42:13.868Z,1003.24
2019-03-03T03:43:18.066Z,1003.21
2019-03-03T03:44:22.292Z,1003.14
2019-03-03T03:45:26.464Z,1003.13
2019-03-03T03:46:30.710Z,1003.17
2019-03-03T03:47:34.859Z,1003.21
2019-03-03T03:48:39.210Z,1003.16
2019-03-03T03:49:43.340Z,1003.14
2019-03-03T03:50:47.600Z,1003.12
2019-03-03T03:51:51.854Z,1003.15
2019-03-03T03:52:55.993Z,1003.10
2019-03-03T03:54:00.325Z,1003.04
2019-03-03T03:55:04.526Z,1003.00
2019-03-03T03:56:08.660Z,1003.00
2019-03-03T03:57:12.829Z,1002.98
2019-03-03T03:58:17.104Z,1003.00
2019-03-03T03:59:21.359Z,1002.97
2019-03-03T04:00:25.571Z,1002.98
2019-03-03T04:01:29.770Z,1002.97
2019-03-03T04:02:33.954Z,1002.99
2019-03-03T04:03:38.207Z,1002.97
2019-03-03T04:04:42.473Z,1002.96
2019-03-03T04:05:46.728Z,1002.96
2019-03-03T04:06:50.964Z,1002.94
2019-03-03T04:07:55.142Z,1002.88
2019-03-03T04:09:01.721Z,1002.82
2019-03-03T04:10:03.589Z,1002.79
2019-03-03T04:11:07.792Z,1002.74
2019-03-03T04:12:12.051Z,1002.71
2019-03-03T04:13:16.285Z,1002.71
2019-03-03T04:14:20.558Z,1002.68
2019-03-03T04:15:24.779Z,1002.66
2019-03-03T04:16:29.001Z,1002.64
2019-03-03T04:17:33.113Z,1002.64
2019-03-03T04:18:37.412Z,1002.64
2019-03-03T04:19:41.678Z,1002.60
2019-03-03T04:20:45.761Z,1002.61
2019-03-03T04:21:50.050Z,1002.62
2019-03-03T04:22:54.263Z,1002.59
2019-03-03T04:23:58.524Z,1002.59
2019-03-03T04:25:02.581Z,1002.60
2019-03-03T04:26:06.886Z,1002.60
2019-03-03T04:27:11.938Z,1002.58
2019-03-03T04:28:15.833Z,1002.55
2019-03-03T04:29:19.894Z,1002.54
2019-03-03T04:30:24.219Z,1002.52
2019-03-03T04:31:28.364Z,1002.52
2019-03-03T04:32:32.559Z,1002.47
2019-03-03T04:33:36.826Z,1002.44
2019-03-03T04:34:41.087Z,1002.38
2019-03-03T04:35:45.214Z,1002.34
2019-03-03T04:36:49.370Z,1002.32
2019-03-03T04:37:53.719Z,1002.29
2019-03-03T04:38:57.958Z,1002.30
2019-03-03T04:40:05.234Z,1002.27
2019-03-03T04:41:08.538Z,1002.24
2019-03-03T04:42:12.686Z,1002.27
2019-03-03T04:43:16.972Z,1002.31
2019-03-03T04:44:21.173Z,1002.27
2019-03-03T04:45:25.436Z,1002.20
2019-03-03T04:46:29.580Z,1002.18
2019-03-03T04:47:33.894Z,1002.17
2019-03-03T04:48:38.107Z,1002.15
2019-03-03T04:49:42.423Z,1002.16
2019-03-03T04:50:46.689Z,1002.15
2019-03-03T04:51:50.900Z,1002.13
2019-03-03T04:52:55.096Z,1002.15
2019-03-03T04:53:59.349Z,1002.12
2019-03-03T04:55:03.639Z,1002.11
2019-03-03T04:56:07.818Z,1002.10
2019-03-03T04:57:11.915Z,1002.05
2019-03-03T04:58:16.251Z,1002.00
2019-03-03T04:59:20.396Z,1002.02
2019-03-03T05:00:24.688Z,1001.98
2019-03-03T05:01:28.840Z,1002.03
2019-03-03T05:02:33.167Z,1002.04
2019-03-03T05:03:37.286Z,1002.01
2019-03-03T05:04:41.577Z,1002.00
2019-03-03T05:05:45.731Z,1002.00
2019-03-03T05:06:50.041Z,1002.03
2019-03-03T05:07:54.205Z,1002.01
2019-03-03T05:08:58.418Z,1002.01
2019-03-03T05:10:02.555Z,1001.98
2019-03-03T05:11:06.871Z,1001.98
2019-03-03T05:12:11.124Z,1001.97
2019-03-03T05:13:15.358Z,1001.98
2019-03-03T05:14:19.607Z,1001.96
2019-03-03T05:15:23.800Z,1001.97
2019-03-03T05:16:27.960Z,1001.91
2019-03-03T05:17:32.175Z,1001.89
2019-03-03T05:18:36.446Z,1001.88
2019-03-03T05:19:40.670Z,1001.82
2019-03-03T05:20:44.871Z,1001.79
2019-03-03T05:21:49.106Z,1001.79
2019-03-03T05:22:53.383Z,1001.78
2019-03-03T05:23:57.610Z,1001.77
2019-03-03T05:25:01.837Z,1001.74
2019-03-03T05:26:06.045Z,1001.75
2019-03-03T05:27:10.233Z,1001.71
2019-03-03T05:28:14.552Z,1001.70
2019-03-03T05:29:18.744Z,1001.64
2019-03-03T05:30:22.879Z,1001.68
2019-03-03T05:31:27.102Z,1001.63
2019-03-03T05:32:31.320Z,1001.60
2019-03-03T05:33:35.583Z,1001.55
2019-03-03T05:34:39.861Z,1001.53
2019-03-03T05:35:44.112Z,1001.52
2019-03-03T05:36:48.337Z,1001.53
2019-03-03T05:37:52.483Z,1001.57
2019-03-03T05:38:56.743Z,1001.51
2019-03-03T05:40:01.029Z,1001.50
2019-03-03T05:41:05.183Z,1001.49
2019-03-03T05:42:09.513Z,1001.43
2019-03-03T05:43:13.742Z,1001.45
2019-03-03T05:44:17.869Z,1001.40
2019-03-03T05:45:22.174Z,1001.40
2019-03-03T05:46:26.414Z,1001.39
2019-03-03T05:47:30.557Z,1001.38
2019-03-03T05:48:34.849Z,1001.40
2019-03-03T05:49:39.011Z,1001.37
2019-03-03T05:50:43.293Z,1001.35
2019-03-03T05:51:47.552Z,1001.31
2019-03-03T05:52:51.689Z,1001.30
2019-03-03T05:53:55.958Z,1001.32
2019-03-03T05:55:00.295Z,1001.28
2019-03-03T05:56:04.416Z,1001.33
2019-03-03T05:57:08.627Z,1001.27
2019-03-03T05:58:12.829Z,1001.26
2019-03-03T05:59:17.128Z,1001.21
2019-03-03T06:00:21.255Z,1001.20
2019-03-03T06:01:25.528Z,1001.10
2019-03-03T06:02:29.786Z,1001.05
2019-03-03T06:03:33.944Z,1001.06
2019-03-03T06:04:38.246Z,1001.07
2019-03-03T06:05:42.495Z,1001.08
2019-03-03T06:06:46.764Z,1001.04
2019-03-03T06:07:51.020Z,1001.06
2019-03-03T06:08:55.263Z,1001.04
2019-03-03T06:09:59.522Z,1001.06
2019-03-03T06:11:03.776Z,1000.98
2019-03-03T06:12:08.101Z,1001.00
2019-03-03T06:13:12.306Z,1000.93
2019-03-03T06:14:16.476Z,1000.93
2019-03-03T06:15:20.673Z,1000.88
2019-03-03T06:16:24.933Z,1000.88
2019-03-03T06:17:29.133Z,1000.88
2019-03-03T06:18:33.414Z,1000.88
2019-03-03T06:19:37.572Z,1000.90
2019-03-03T06:20:41.780Z,1000.88
2019-03-03T06:21:46.070Z,1000.87
2019-03-03T06:22:50.316Z,1000.89
2019-03-03T06:23:54.557Z,1000.85
2019-03-03T06:24:58.751Z,1000.85
2019-03-03T06:26:02.988Z,1000.82
2019-03-03T06:27:07.275Z,1000.84
2019-03-03T06:28:11.539Z,1000.86
2019-03-03T06:29:15.719Z,1000.82
2019-03-03T06:30:19.912Z,1000.80
2019-03-03T06:31:24.190Z,1000.80
2019-03-03T06:32:28.374Z,1000.82
2019-03-03T06:33:32.688Z,1000.79
2019-03-03T06:34:36.817Z,1000.79
2019-03-03T06:35:41.124Z,1000.74
2019-03-03T06:36:45.280Z,1000.76
2019-03-03T06:37:49.584Z,1000.79
2019-03-03T06:38:53.804Z,1000.81
2019-03-03T06:39:58.089Z,1000.83
2019-03-03T06:41:02.242Z,1000.80
2019-03-03T06:42:06.562Z,1000.79
2019-03-03T06:43:10.663Z,1000.77
2019-03-03T06:44:15.012Z,1000.77
2019-03-03T06:45:19.280Z,1000.75
2019-03-03T06:46:23.488Z,1000.74
2019-03-03T06:47:27.682Z,1000.71
2019-03-03T06:48:32.002Z,1000.73
2019-03-03T06:49:36.146Z,1000.73
2019-03-03T06:50:40.450Z,1000.71
2019-03-03T06:51:44.700Z,1000.74
2019-03-03T06:52:48.899Z,1000.71
2019-03-03T06:53:53.241Z,1000.69
2019-03-03T06:54:57.474Z,1000.69
2019-03-03T06:56:01.655Z,1000.67
2019-03-03T06:57:05.943Z,1000.67
2019-03-03T06:58:10.226Z,1000.68
2019-03-03T06:59:14.398Z,1000.68
2019-03-03T07:00:18.662Z,1000.67
2019-03-03T07:01:22.936Z,1000.67
2019-03-03T07:02:27.056Z,1000.60
2019-03-03T07:03:31.400Z,1000.63
2019-03-03T07:04:35.657Z,1000.61
2019-03-03T07:05:39.916Z,1000.61
2019-03-03T07:06:44.038Z,1000.59
2019-03-03T07:07:48.322Z,1000.53
2019-03-03T07:08:52.482Z,1000.55
2019-03-03T07:09:56.656Z,1000.53
2019-03-03T07:11:00.942Z,1000.57
2019-03-03T07:12:05.097Z,1000.57
2019-03-03T07:13:09.389Z,1000.52
2019-03-03T07:14:13.641Z,1000.54
2019-03-03T07:15:17.954Z,1000.53
2019-03-03T07:16:22.147Z,1000.57
2019-03-03T07:17:26.405Z,1000.55
2019-03-03T07:18:30.708Z,1000.52
2019-03-03T07:19:34.897Z,1000.50
2019-03-03T07:20:39.172Z,1000.53
2019-03-03T07:21:43.372Z,1000.53
2019-03-03T07:22:47.558Z,1000.53
2019-03-03T07:23:51.788Z,1000.49
2019-03-03T07:24:55.995Z,1000.51
2019-03-03T07:26:00.244Z,1000.52
2019-03-03T07:27:04.485Z,1000.54
2019-03-03T07:28:08.729Z,1000.49
2019-03-03T07:29:13.004Z,1000.53
2019-03-03T07:30:17.252Z,1000.57
2019-03-03T07:31:21.506Z,1000.55
2019-03-03T07:32:25.794Z,1000.54
2019-03-03T07:33:29.995Z,1000.53
2019-03-03T07:34:34.216Z,1000.55
2019-03-03T07:35:38.466Z,1000.57
2019-03-03T07:36:42.795Z,1000.55
2019-03-03T07:37:47.047Z,1000.56
2019-03-03T07:38:51.217Z,1000.52
2019-03-03T07:39:55.510Z,1000.52
2019-03-03T07:40:59.764Z,1000.51
2019-03-03T07:42:03.941Z,1000.49
2019-03-03T07:43:08.247Z,1000.55
2019-03-03T07:44:12.537Z,1000.52
2019-03-03T07:45:16.709Z,1000.54
2019-03-03T07:46:20.951Z,1000.50
2019-03-03T07:47:25.258Z,1000.50
2019-03-03T07:48:29.392Z,1000.49
2019-03-03T07:49:33.672Z,1000.46
2019-03-03T07:50:37.874Z,1000.42
2019-03-03T07:51:42.124Z,1000.44
2019-03-03T07:52:46.303Z,1000.47
2019-03-03T07:53:50.579Z,1000.52
2019-03-03T07:54:54.866Z,1000.52
2019-03-03T07:55:59.107Z,1000.52
2019-03-03T07:57:03.300Z,1000.51
2019-03-03T07:58:07.597Z,1000.48
2019-03-03T07:59:11.854Z,1000.46
2019-03-03T08:00:15.963Z,1000.43
2019-03-03T08:01:20.255Z,1000.39
2019-03-03T08:02:24.532Z,1000.35
2019-03-03T08:03:28.779Z,1000.38
2019-03-03T08:04:33.061Z,1000.36
2019-03-03T08:05:37.193Z,1000.43
2019-03-03T08:06:41.477Z,1000.43
2019-03-03T08:07:45.731Z,1000.47
2019-03-03T08:08:49.896Z,1000.48
2019-03-03T08:09:54.143Z,1000.46
2019-03-03T08:10:58.423Z,1000.45
2019-03-03T08:12:02.687Z,1000.47
2019-03-03T08:13:09.522Z,1000.45
2019-03-03T08:14:11.115Z,1000.44
2019-03-03T08:15:15.442Z,1000.45
2019-03-03T08:16:19.693Z,1000.40
2019-03-03T08:17:23.817Z,1000.40
2019-03-03T08:18:28.130Z,1000.43
2019-03-03T08:19:32.397Z,1000.38
2019-03-03T08:20:36.670Z,1000.44
2019-03-03T08:21:40.902Z,1000.43
2019-03-03T08:22:45.095Z,1000.40
2019-03-03T08:23:49.381Z,1000.42
2019-03-03T08:24:53.581Z,1000.40
2019-03-03T08:25:57.851Z,1000.37
2019-03-03T08:27:02.031Z,1000.39
2019-03-03T08:28:06.342Z,1000.40
2019-03-03T08:29:10.492Z,1000.39
2019-03-03T08:30:14.858Z,1000.43
2019-03-03T08:31:19.023Z,1000.46
2019-03-03T08:32:23.212Z,1000.44
2019-03-03T08:33:27.452Z,1000.44
2019-03-03T08:34:31.641Z,1000.45
2019-03-03T08:35:35.896Z,1000.45
2019-03-03T08:36:40.012Z,1000.41
2019-03-03T08:37:44.289Z,1000.43
2019-03-03T08:38:48.484Z,1000.39
2019-03-03T08:39:52.782Z,1000.45
2019-03-03T08:40:56.944Z,1000.42
2019-03-03T08:42:01.139Z,1000.44
2019-03-03T08:43:05.427Z,1000.42
2019-03-03T08:44:09.586Z,1000.40
2019-03-03T08:45:13.843Z,1000.42
2019-03-03T08:46:18.177Z,1000.38
2019-03-03T08:47:22.447Z,1000.39
2019-03-03T08:48:26.651Z,1000.37
2019-03-03T08:49:30.893Z,1000.39
2019-03-03T08:50:35.246Z,1000.41
2019-03-03T08:51:39.347Z,1000.36
2019-03-03T08:52:43.660Z,1000.35
2019-03-03T08:53:47.926Z,1000.40
2019-03-03T08:54:52.121Z,1000.38
2019-03-03T08:55:56.348Z,1000.41
2019-03-03T08:57:00.667Z,1000.38
2019-03-03T08:58:04.855Z,1000.34
2019-03-03T08:59:09.145Z,1000.35
2019-03-03T09:00:13.353Z,1000.34
2019-03-03T09:01:17.582Z,1000.36
2019-03-03T09:02:21.890Z,1000.40
2019-03-03T09:03:26.081Z,1000.40
2019-03-03T09:04:30.283Z,1000.39
2019-03-03T09:05:34.562Z,1000.37
2019-03-03T09:06:38.752Z,1000.38
2019-03-03T09:07:43.008Z,1000.32
2019-03-03T09:08:47.215Z,1000.31
2019-03-03T09:09:51.514Z,1000.30
2019-03-03T09:10:55.812Z,1000.33
2019-03-03T09:12:00.084Z,1000.33
2019-03-03T09:13:04.308Z,1000.30
2019-03-03T09:14:08.485Z,1000.32
2019-03-03T09:15:12.782Z,1000.34
2019-03-03T09:16:17.056Z,1000.34
2019-03-03T09:17:21.202Z,1000.32
2019-03-03T09:18:25.549Z,1000.32
2019-03-03T09:19:29.733Z,1000.34
2019-03-03T09:20:34.051Z,1000.36
2019-03-03T09:21:38.222Z,1000.38
2019-03-03T09:22:42.515Z,1000.40
2019-03-03T09:23:46.718Z,1000.39
2019-03-03T09:24:51.013Z,1000.38
2019-03-03T09:25:55.174Z,1000.38
2019-03-03T09:26:59.510Z,1000.35
2019-03-03T09:28:03.768Z,1000.38
2019-03-03T09:29:08.018Z,1000.37
2019-03-03T09:30:12.178Z,1000.40
2019-03-03T09:31:16.372Z,1000.41
2019-03-03T09:32:20.700Z,1000.40
2019-03-03T09:33:24.962Z,1000.37
2019-03-03T09:34:29.137Z,1000.37
2019-03-03T09:35:33.469Z,1000.41
2019-03-03T09:36:37.704Z,1000.40
2019-03-03T09:37:42.050Z,1000.40
2019-03-03T09:38:46.295Z,1000.34
2019-03-03T09:39:50.498Z,1000.34
2019-03-03T09:40:54.706Z,1000.40
2019-03-03T09:41:58.941Z,1000.39
2019-03-03T09:43:03.117Z,1000.34
2019-03-03T09:44:07.422Z,1000.37
2019-03-03T09:45:11.597Z,1000.39
2019-03-03T09:46:15.830Z,1000.38
2019-03-03T09:47:20.158Z,1000.43
2019-03-03T09:48:24.308Z,1000.41
2019-03-03T09:49:28.593Z,1000.40
2019-03-03T09:50:32.769Z,1000.43
2019-03-03T09:51:37.006Z,1000.45
2019-03-03T09:52:41.232Z,1000.44
2019-03-03T09:53:45.503Z,1000.44
2019-03-03T09:54:50.484Z,1000.42
2019-03-03T09:55:54.045Z,1000.40
2019-03-03T09:56:58.194Z,1000.48
2019-03-03T09:58:02.417Z,1000.50
2019-03-03T09:59:06.634Z,1000.43
2019-03-03T10:00:10.926Z,1000.48
2019-03-03T10:01:15.171Z,1000.52
2019-03-03T10:02:19.369Z,1000.48
2019-03-03T10:03:23.674Z,1000.55
2019-03-03T10:04:27.886Z,1000.55
2019-03-03T10:05:32.093Z,1000.54
2019-03-03T10:06:36.413Z,1000.48
2019-03-03T10:07:40.682Z,1000.47
2019-03-03T10:08:44.844Z,1000.48
2019-03-03T10:09:49.106Z,1000.43
2019-03-03T10:10:53.305Z,1000.43
2019-03-03T10:11:57.567Z,1000.46
2019-03-03T10:13:01.760Z,1000.46
2019-03-03T10:14:05.984Z,1000.47
2019-03-03T10:15:10.300Z,1000.44
2019-03-03T10:16:14.442Z,1000.47
2019-03-03T10:17:18.654Z,1000.54
2019-03-03T10:18:22.881Z,1000.55
2019-03-03T10:19:27.150Z,1000.52
2019-03-03T10:20:31.354Z,1000.53
2019-03-03T10:21:35.568Z,1000.54
2019-03-03T10:22:39.881Z,1000.50
2019-03-03T10:23:44.071Z,1000.55
2019-03-03T10:24:48.351Z,1000.49
2019-03-03T10:25:52.584Z,1000.51
2019-03-03T10:26:56.825Z,1000.49
2019-03-03T10:28:01.004Z,1000.49
2019-03-03T10:29:05.289Z,1000.49
2019-03-03T10:30:09.488Z,1000.54
2019-03-03T10:31:13.719Z,1000.47
2019-03-03T10:32:18.046Z,1000.51
2019-03-03T10:33:22.250Z,1000.46
2019-03-03T10:34:26.569Z,1000.47
2019-03-03T10:35:30.817Z,1000.45
2019-03-03T10:36:35.064Z,1000.40
2019-03-03T10:37:39.278Z,1000.44
2019-03-03T10:38:43.516Z,1000.35
2019-03-03T10:39:47.810Z,1000.37
2019-03-03T10:40:52.028Z,1000.40
2019-03-03T10:41:56.246Z,1000.48
2019-03-03T10:43:00.540Z,1000.46
2019-03-03T10:44:04.760Z,1000.40
2019-03-03T10:45:08.972Z,1000.34
2019-03-03T10:46:13.285Z,1000.35
2019-03-03T10:47:17.566Z,1000.36
2019-03-03T10:48:21.887Z,1000.38
2019-03-03T10:49:26.063Z,1000.42
2019-03-03T10:50:30.370Z,1000.45
2019-03-03T10:51:34.627Z,1000.45
2019-03-03T10:52:38.827Z,1000.42
2019-03-03T10:53:43.088Z,1000.42
2019-03-03T10:54:47.378Z,1000.42
2019-03-03T10:55:51.571Z,1000.34
2019-03-03T10:56:55.863Z,1000.41
2019-03-03T10:58:00.137Z,1000.42
2019-03-03T10:59:04.444Z,1000.42
2019-03-03T11:00:08.632Z,1000.45
2019-03-03T11:01:12.848Z,1000.39
2019-03-03T11:02:17.197Z,1000.40
2019-03-03T11:03:21.465Z,1000.39
2019-03-03T11:04:25.770Z,1000.40
2019-03-03T11:05:29.980Z,1000.38
2019-03-03T11:06:34.226Z,1000.35
2019-03-03T11:07:38.532Z,1000.39
2019-03-03T11:08:42.758Z,1000.38
2019-03-03T11:09:46.993Z,1000.41
2019-03-03T11:10:57.508Z,1000.38
2019-03-03T11:11:55.547Z,1000.32
2019-03-03T11:12:59.819Z,1000.32
2019-03-03T11:14:04.290Z,1000.33
2019-03-03T11:15:18.051Z,1000.36
2019-03-03T11:16:12.530Z,1000.32
2019-03-03T11:17:16.859Z,1000.36
2019-03-03T11:18:21.046Z,1000.36
2019-03-03T11:19:25.304Z,1000.35
2019-03-03T11:20:29.585Z,1000.36
2019-03-03T11:21:33.779Z,1000.33
2019-03-03T11:22:37.971Z,1000.35
2019-03-03T11:23:42.283Z,1000.39
2019-03-03T11:24:46.574Z,1000.35
2019-03-03T11:25:50.884Z,1000.33
2019-03-03T11:26:55.166Z,1000.33
2019-03-03T11:27:59.317Z,1000.32
2019-03-03T11:29:03.625Z,1000.38
2019-03-03T11:30:07.846Z,1000.34
2019-03-03T11:31:12.065Z,1000.38
2019-03-03T11:32:16.399Z,1000.36
2019-03-03T11:33:20.640Z,1000.34
2019-03-03T11:34:29.744Z,1000.35
2019-03-03T11:35:31.329Z,1000.34
2019-03-03T11:36:35.613Z,1000.28
2019-03-03T11:37:39.911Z,1000.24
2019-03-03T11:38:44.182Z,1000.20
2019-03-03T11:39:48.417Z,1000.26
2019-03-03T11:40:52.733Z,1000.29
2019-03-03T11:41:57.128Z,1000.33
2019-03-03T11:43:01.402Z,1000.38
2019-03-03T11:44:05.660Z,1000.39
2019-03-03T11:45:09.993Z,1000.39
2019-03-03T11:46:14.264Z,1000.30
2019-03-03T11:47:18.564Z,1000.26
2019-03-03T11:48:22.959Z,1000.31
2019-03-03T11:49:27.160Z,1000.30
2019-03-03T11:50:31.470Z,1000.38
2019-03-03T11:51:35.729Z,1000.40
2019-03-03T11:52:40.046Z,1000.40
2019-03-03T11:53:44.407Z,1000.44
2019-03-03T11:54:48.623Z,1000.44
2019-03-03T11:55:52.932Z,1000.40
2019-03-03T11:56:57.224Z,1000.38
2019-03-03T11:58:01.566Z,1000.41
2019-03-03T11:59:05.730Z,1000.36
2019-03-03T12:00:10.064Z,1000.37
2019-03-03T12:01:14.345Z,1000.35
2019-03-03T12:02:18.603Z,1000.34
2019-03-03T12:03:22.889Z,1000.37
2019-03-03T12:04:27.060Z,1000.34
2019-03-03T12:05:31.441Z,1000.40
2019-03-03T12:06:35.817Z,1000.36
2019-03-03T12:07:40.036Z,1000.36
2019-03-03T12:08:44.329Z,1000.39
2019-03-03T12:09:48.440Z,1000.34
2019-03-03T12:10:52.797Z,1000.39
2019-03-03T12:11:57.059Z,1000.38
2019-03-03T12:13:01.326Z,1000.38
2019-03-03T12:14:05.649Z,1000.41
2019-03-03T12:15:09.919Z,1000.40
2019-03-03T12:16:14.241Z,1000.38
2019-03-03T12:17:18.503Z,1000.33
2019-03-03T12:18:24.727Z,1000.35
2019-03-03T12:19:27.118Z,1000.34
2019-03-03T12:20:31.411Z,1000.32
2019-03-03T12:21:35.705Z,1000.34
2019-03-03T12:22:39.984Z,1000.34
2019-03-03T12:23:44.267Z,1000.27
2019-03-03T12:24:48.453Z,1000.26
2019-03-03T12:25:52.901Z,1000.30
2019-03-03T12:26:57.124Z,1000.32
2019-03-03T12:28:01.501Z,1000.33
2019-03-03T12:29:05.720Z,1000.32
2019-03-03T12:30:10.052Z,1000.30
2019-03-03T12:31:14.296Z,1000.25
2019-03-03T12:32:18.608Z,1000.25
2019-03-03T12:33:22.978Z,1000.20
2019-03-03T12:34:27.244Z,1000.23
2019-03-03T12:35:31.533Z,1000.25
2019-03-03T12:36:35.773Z,1000.21
2019-03-03T12:37:40.092Z,1000.23
2019-03-03T12:38:44.360Z,1000.26
2019-03-03T12:39:48.630Z,1000.23
2019-03-03T12:40:53.006Z,1000.20
2019-03-03T12:41:57.247Z,1000.23
2019-03-03T12:43:01.568Z,1000.20
2019-03-03T12:44:05.842Z,1000.17
2019-03-03T12:45:10.147Z,1000.21
2019-03-03T12:46:14.399Z,1000.25
2019-03-03T12:47:18.751Z,1000.18
2019-03-03T12:48:23.037Z,1000.21
2019-03-03T12:49:27.326Z,1000.14
2019-03-03T12:50:31.540Z,1000.15
2019-03-03T12:51:35.849Z,1000.15
2019-03-03T12:52:40.205Z,1000.19
2019-03-03T12:53:44.459Z,1000.18
2019-03-03T12:54:48.589Z,1000.21
2019-03-03T12:55:52.943Z,1000.22
2019-03-03T12:56:57.200Z,1000.23